createdAt,value
2017-09-04T00:00:04.157Z,8.9
2017-09-04T00:15:03.331Z,8.8
2017-09-04T00:30:03.688Z,8.6
2017-09-04T00:45:03.748Z,8.5
2017-09-04T01:00:04.894Z,8.5
2017-09-04T01:15:03.713Z,8.2
2017-09-04T01:30:03.504Z,8
2017-09-04T01:45:03.259Z,8.1
2017-09-04T02:00:07.086Z,7.8
2017-09-04T02:15:03.390Z,7.7
2017-09-04T02:30:04.238Z,7.6
2017-09-04T02:45:03.841Z,7.4
2017-09-04T03:00:04.234Z,7.2
2017-09-04T03:15:03.760Z,6.6
2017-09-04T03:30:04.237Z,7.1
2017-09-04T03:45:03.599Z,7.2
2017-09-04T04:00:04.488Z,6.8
2017-09-04T04:15:03.648Z,7
2017-09-04T04:30:03.669Z,7
2017-09-04T04:45:03.621Z,7
2017-09-04T05:00:05.345Z,7
2017-09-04T05:15:03.439Z,7.4
2017-09-04T05:30:04.351Z,7.4
2017-09-04T05:45:03.100Z,7.4
2017-09-04T06:00:05.199Z,7.7
2017-09-04T06:15:03.140Z,7.8
2017-09-04T06:30:03.094Z,8.1
2017-09-04T06:45:03.720Z,8.2
2017-09-04T07:00:05.409Z,8.8
2017-09-04T07:15:04.483Z,8.8
2017-09-04T07:30:05.657Z,9
2017-09-04T07:45:02.661Z,9.6
2017-09-04T08:00:04.303Z,10.4
2017-09-04T08:15:03.627Z,11.9
2017-09-04T08:30:04.162Z,13.2
2017-09-04T08:45:03.421Z,14.2
2017-09-04T09:00:04.229Z,15.1
2017-09-04T09:15:02.842Z,16.2
2017-09-04T09:30:02.732Z,17
2017-09-04T09:45:03.395Z,17.6
2017-09-04T10:00:05.991Z,17.6
2017-09-04T10:15:02.599Z,18.1
2017-09-04T10:30:03.456Z,18.4
2017-09-04T10:45:03.232Z,19.6
2017-09-04T11:00:03.165Z,20.8
2017-09-04T11:15:02.792Z,20.2
2017-09-04T11:30:03.802Z,20.2
2017-09-04T11:45:03.465Z,20.4
2017-09-04T12:00:03.118Z,21.1
2017-09-04T12:15:02.707Z,21.5
2017-09-04T12:30:03.635Z,22.1
2017-09-04T12:45:03.507Z,21.1
2017-09-04T13:00:03.311Z,21.4
2017-09-04T13:15:02.955Z,21.6
2017-09-04T13:30:02.900Z,21.2
2017-09-04T13:45:03.806Z,21.7
2017-09-04T14:00:04.601Z,22.2
2017-09-04T14:15:03.400Z,21.6
2017-09-04T14:30:03.136Z,22.3
2017-09-04T14:45:02.768Z,22.6
2017-09-04T15:00:03.441Z,21.2
2017-09-04T15:15:03.281Z,21.5
2017-09-04T15:30:02.990Z,20.4
2017-09-04T15:45:02.629Z,20.7
2017-09-04T16:00:03.265Z,19.9
2017-09-04T16:15:03.038Z,18.8
2017-09-04T16:30:02.714Z,18.4
2017-09-04T16:45:03.409Z,18.1
2017-09-04T17:00:03.170Z,16.9
2017-09-04T17:15:02.914Z,16.1
2017-09-04T17:30:02.566Z,15.4
2017-09-04T17:45:03.268Z,15.1
2017-09-04T18:00:03.423Z,14.4
2017-09-04T18:15:03.049Z,14
2017-09-04T18:30:02.916Z,13.8
2017-09-04T18:45:03.587Z,13.3
2017-09-04T19:00:03.257Z,13.2
2017-09-04T19:15:02.936Z,12.9
2017-09-04T19:30:02.602Z,12.8
2017-09-04T19:45:03.245Z,12.8
2017-09-04T20:00:03.017Z,12.4
2017-09-04T20:15:02.566Z,12.2
2017-09-04T20:30:03.606Z,12.1
2017-09-04T20:45:03.376Z,11.9
2017-09-04T21:00:03.118Z,11.7
2017-09-04T21:15:02.693Z,11.5
2017-09-04T21:30:03.463Z,11.2
2017-09-04T21:45:03.143Z,11.1
2017-09-04T22:00:02.970Z,10.9
2017-09-04T22:15:02.544Z,11
2017-09-04T22:30:03.324Z,10.8
2017-09-04T22:45:03.057Z,10.7
2017-09-04T23:00:02.661Z,10.7
2017-09-04T23:15:03.295Z,10.4
2017-09-04T23:30:03.070Z,10.3
2017-09-04T23:45:02.769Z,10.2
